createdAt,value
2022-12-01T00:01:03.485Z,25.20
2022-12-01T00:05:15.843Z,31.13
2022-12-01T00:09:46.645Z,27.58
2022-12-01T00:13:59.377Z,27.95
2022-12-01T00:18:11.659Z,29.25
2022-12-01T00:22:24.083Z,30.42
2022-12-01T00:26:38.733Z,24.10
2022-12-01T00:30:51.019Z,29.02
2022-12-01T00:35:04.555Z,25.70
2022-12-01T00:39:17.582Z,23.23
2022-12-01T00:43:29.889Z,26.40
2022-12-01T00:47:42.160Z,21.50
2022-12-01T00:51:54.565Z,27.85
2022-12-01T00:56:07.694Z,21.70
2022-12-01T01:00:20.183Z,26.40
2022-12-01T01:04:34.480Z,26.95
2022-12-01T01:08:46.957Z,32.83
2022-12-01T01:12:59.230Z,29.20
2022-12-01T01:17:11.498Z,27.95
2022-12-01T01:21:23.781Z,32.28
2022-12-01T01:25:36.111Z,27.63
2022-12-01T01:29:48.571Z,24.75
2022-12-01T01:34:01.547Z,28.52
2022-12-01T01:38:13.927Z,22.55
2022-12-01T01:42:26.225Z,25.35
2022-12-01T01:46:38.556Z,29.52
2022-12-01T01:50:50.861Z,25.92
2022-12-01T01:55:03.695Z,29.17
2022-12-01T01:59:21.525Z,33.42
2022-12-01T02:03:44.204Z,33.28
2022-12-01T02:07:59.288Z,30.92
2022-12-01T02:12:28.810Z,42.33
2022-12-01T02:17:10.354Z,31.27
2022-12-01T02:21:32.267Z,34.45
2022-12-01T02:26:12.544Z,32.90
2022-12-01T02:30:41.764Z,26.30
2022-12-01T02:35:09.304Z,22.10
2022-12-01T02:39:39.847Z,34.17
2022-12-01T02:44:14.807Z,30.70
2022-12-01T02:48:34.536Z,35.25
2022-12-01T02:52:46.932Z,32.85
2022-12-01T02:57:13.376Z,24.77
2022-12-01T03:01:28.475Z,29.35
2022-12-01T03:05:43.478Z,30.58
2022-12-01T03:10:04.886Z,28.65
2022-12-01T03:14:42.275Z,26.83
2022-12-01T03:19:04.354Z,28.27
2022-12-01T03:23:22.639Z,24.38
2022-12-01T03:27:38.586Z,23.23
2022-12-01T03:31:57.661Z,30.15
2022-12-01T03:36:15.978Z,23.90
2022-12-01T03:40:31.464Z,23.05
2022-12-01T03:44:51.798Z,26.92
2022-12-01T03:49:06.447Z,26.95
2022-12-01T03:53:25.120Z,29.65
2022-12-01T03:57:45.136Z,28.30
2022-12-01T04:01:58.938Z,30.95
2022-12-01T04:06:11.282Z,29.08
2022-12-01T04:10:23.583Z,28.73
2022-12-01T04:14:35.947Z,25.45
2022-12-01T04:18:48.329Z,22.73
2022-12-01T04:23:00.620Z,22.23
2022-12-01T04:27:13.423Z,32.08
2022-12-01T04:31:25.801Z,24.88
2022-12-01T04:35:57.157Z,25.65
2022-12-01T04:40:09.922Z,28.50
2022-12-01T04:44:34.279Z,22.30
2022-12-01T04:48:47.186Z,23.27
2022-12-01T04:52:59.429Z,29.52
2022-12-01T04:57:21.820Z,23.75
2022-12-01T05:01:34.765Z,23.08
2022-12-01T05:05:47.069Z,23.92
2022-12-01T05:09:59.360Z,24.52
2022-12-01T05:14:11.731Z,25.52
2022-12-01T05:18:24.036Z,27.20
2022-12-01T05:23:03.809Z,31.15
2022-12-01T05:27:08.596Z,28.38
2022-12-01T05:31:20.907Z,25.50
2022-12-01T05:35:36.282Z,29.67
2022-12-01T05:39:48.873Z,30.58
2022-12-01T05:44:01.272Z,27.15
2022-12-01T05:48:23.434Z,29.40
2022-12-01T05:52:36.529Z,26.27
2022-12-01T05:56:48.843Z,28.10
2022-12-01T06:01:01.258Z,29.73
2022-12-01T06:05:13.958Z,23.90
2022-12-01T06:09:26.227Z,26.42
2022-12-01T06:13:38.701Z,23.55
2022-12-01T06:17:50.994Z,20.50
2022-12-01T06:22:03.440Z,20.58
2022-12-01T06:26:15.774Z,18.70
2022-12-01T06:30:28.531Z,17.00
2022-12-01T06:34:40.857Z,24.50
2022-12-01T06:38:53.237Z,22.38
2022-12-01T06:43:05.856Z,23.25
2022-12-01T06:47:18.146Z,28.02
2022-12-01T06:51:31.258Z,28.27
2022-12-01T06:55:43.917Z,20.27
2022-12-01T06:59:56.644Z,20.50
2022-12-01T07:04:09.513Z,18.90
2022-12-01T07:08:21.769Z,25.52
2022-12-01T07:12:34.092Z,21.48
2022-12-01T07:16:46.432Z,16.73
2022-12-01T07:21:03.309Z,20.58
2022-12-01T07:25:15.753Z,23.98
2022-12-01T07:29:32.155Z,26.02
2022-12-01T07:33:44.848Z,28.85
2022-12-01T07:37:59.949Z,20.33
2022-12-01T07:42:12.265Z,23.42
2022-12-01T07:46:27.477Z,22.75
2022-12-01T07:50:39.847Z,22.40
2022-12-01T07:54:52.204Z,24.13
2022-12-01T07:59:04.508Z,20.85
2022-12-01T08:03:16.879Z,20.38
2022-12-01T08:07:30.091Z,19.60
2022-12-01T08:11:42.486Z,20.02
2022-12-01T08:15:55.065Z,18.80
2022-12-01T08:20:08.858Z,27.80
2022-12-01T08:24:21.148Z,19.73
2022-12-01T08:28:36.202Z,19.63
2022-12-01T08:32:48.606Z,21.50
2022-12-01T08:37:00.869Z,22.05
2022-12-01T08:41:23.233Z,23.00
2022-12-01T08:45:35.535Z,20.88
2022-12-01T08:49:48.294Z,21.02
2022-12-01T08:54:02.178Z,26.15
2022-12-01T08:58:14.444Z,20.02
2022-12-01T09:02:26.857Z,19.52
2022-12-01T09:06:42.368Z,23.20
2022-12-01T09:10:54.661Z,20.13
2022-12-01T09:15:07.255Z,22.63
2022-12-01T09:19:24.507Z,23.40
2022-12-01T09:23:37.509Z,20.65
2022-12-01T09:27:49.773Z,21.58
2022-12-01T09:32:02.463Z,21.90
2022-12-01T09:36:18.739Z,21.10
2022-12-01T09:40:35.744Z,25.30
2022-12-01T09:44:53.917Z,24.60
2022-12-01T09:49:09.472Z,20.38
2022-12-01T09:53:26.051Z,21.60
2022-12-01T09:57:41.112Z,21.17
2022-12-01T10:02:00.976Z,28.23
2022-12-01T10:06:29.150Z,19.38
2022-12-01T10:10:46.037Z,21.40
2022-12-01T10:15:33.710Z,20.42
2022-12-01T10:19:57.866Z,21.77
2022-12-01T10:24:34.005Z,22.30
2022-12-01T10:28:49.250Z,21.38
2022-12-01T10:33:22.429Z,24.13
2022-12-01T10:37:34.762Z,20.63
2022-12-01T10:41:49.711Z,21.85
2022-12-01T10:46:23.974Z,16.33
2022-12-01T10:50:37.232Z,17.08
2022-12-01T10:54:49.495Z,20.20
2022-12-01T10:59:18.371Z,19.48
2022-12-01T11:03:38.117Z,18.23
2022-12-01T11:07:51.263Z,16.95
2022-12-01T11:12:05.390Z,18.13
2022-12-01T11:16:44.118Z,21.73
2022-12-01T11:21:15.741Z,18.95
2022-12-01T11:25:28.026Z,21.00
2022-12-01T11:29:40.935Z,20.48
2022-12-01T11:33:55.612Z,17.38
2022-12-01T11:42:49.117Z,21.52
2022-12-01T11:47:24.411Z,17.23
2022-12-01T11:51:38.431Z,18.95
2022-12-01T11:55:50.812Z,18.60
2022-12-01T12:00:14.367Z,22.10
2022-12-01T12:04:35.764Z,17.75
2022-12-01T12:09:20.199Z,16.27
2022-12-01T12:13:53.841Z,18.50
2022-12-01T12:18:22.071Z,20.02
2022-12-01T12:23:01.489Z,21.38
2022-12-01T12:27:16.607Z,21.00
2022-12-01T12:31:46.785Z,19.95
2022-12-01T12:36:17.175Z,16.15
2022-12-01T12:40:41.821Z,22.75
2022-12-01T12:45:30.698Z,21.13
2022-12-01T12:49:54.983Z,22.25
2022-12-01T12:54:22.454Z,18.48
2022-12-01T12:58:43.964Z,22.55
2022-12-01T13:03:22.227Z,19.38
2022-12-01T13:07:53.359Z,18.73
2022-12-01T13:12:10.722Z,20.83
2022-12-01T13:16:51.249Z,16.60
2022-12-01T13:21:05.383Z,16.98
2022-12-01T13:25:35.188Z,19.88
2022-12-01T13:29:50.588Z,23.27
2022-12-01T13:34:06.522Z,18.70
2022-12-01T13:38:31.080Z,19.20
2022-12-01T13:42:44.063Z,20.63
2022-12-01T13:47:05.405Z,15.73
2022-12-01T13:51:18.180Z,23.33
2022-12-01T13:55:30.662Z,20.88
2022-12-01T14:00:01.329Z,20.42
2022-12-01T14:04:16.336Z,14.63
2022-12-01T14:08:35.241Z,18.23
2022-12-01T14:12:47.841Z,15.23
2022-12-01T14:17:03.314Z,15.02
2022-12-01T14:21:16.085Z,15.10
2022-12-01T14:25:31.498Z,21.02
2022-12-01T14:29:44.012Z,16.67
2022-12-01T14:34:11.215Z,16.27
2022-12-01T14:38:28.759Z,19.60
2022-12-01T14:43:03.061Z,20.65
2022-12-01T14:47:23.053Z,19.45
2022-12-01T14:51:36.924Z,16.35
2022-12-01T14:55:57.908Z,18.55
2022-12-01T15:00:25.625Z,21.77
2022-12-01T15:05:07.915Z,18.73
2022-12-01T15:09:37.519Z,17.83
2022-12-01T15:13:52.507Z,15.48
2022-12-01T15:18:22.383Z,18.42
2022-12-01T15:22:34.826Z,20.08
2022-12-01T15:26:49.417Z,19.52
2022-12-01T15:31:06.234Z,20.73
2022-12-01T15:35:23.046Z,19.17
2022-12-01T15:39:38.225Z,16.63
2022-12-01T15:43:59.347Z,18.17
2022-12-01T15:48:25.486Z,21.40
2022-12-01T15:52:45.419Z,23.83
2022-12-01T16:01:21.943Z,18.67
2022-12-01T16:05:36.553Z,23.20
2022-12-01T16:10:00.199Z,20.05
2022-12-01T16:14:22.832Z,17.85
2022-12-01T16:18:35.292Z,21.52
2022-12-01T16:22:51.922Z,18.88
2022-12-01T16:27:07.558Z,24.48
2022-12-01T16:31:20.586Z,22.02
2022-12-01T16:35:34.828Z,28.48
2022-12-01T16:39:47.125Z,22.02
2022-12-01T16:44:20.668Z,19.02
2022-12-01T16:48:41.759Z,20.75
2022-12-01T16:52:54.068Z,22.23
2022-12-01T16:57:06.688Z,18.25
2022-12-01T17:01:19.286Z,18.48
2022-12-01T17:05:31.791Z,17.08
2022-12-01T17:09:44.106Z,21.33
2022-12-01T17:13:56.426Z,18.05
2022-12-01T17:18:08.735Z,20.60
2022-12-01T17:22:21.192Z,17.58
2022-12-01T17:26:34.687Z,18.77
2022-12-01T17:30:47.407Z,16.30
2022-12-01T17:34:59.871Z,19.88
2022-12-01T17:39:12.172Z,23.75
2022-12-01T17:43:24.446Z,20.15
2022-12-01T17:47:36.761Z,20.63
2022-12-01T17:51:49.170Z,20.98
2022-12-01T17:56:01.603Z,15.63
2022-12-01T18:00:14.652Z,16.73
2022-12-01T18:04:26.991Z,21.63
2022-12-01T18:08:40.569Z,17.02
2022-12-01T18:12:56.625Z,19.48
2022-12-01T18:17:08.947Z,17.92
2022-12-01T18:21:23.634Z,20.92
2022-12-01T18:25:37.566Z,19.17
2022-12-01T18:29:59.942Z,22.58
2022-12-01T18:34:12.834Z,24.35
2022-12-01T18:38:25.766Z,20.27
2022-12-01T18:42:39.825Z,22.38
2022-12-01T18:46:52.266Z,20.95
2022-12-01T18:51:06.364Z,21.50
2022-12-01T18:55:18.651Z,26.30
2022-12-01T18:59:31.016Z,26.30
2022-12-01T19:03:43.275Z,22.40
2022-12-01T19:07:55.611Z,22.77
2022-12-01T19:12:08.217Z,22.27
2022-12-01T19:16:20.962Z,29.48
2022-12-01T19:20:38.220Z,27.40
2022-12-01T19:24:51.561Z,24.67
2022-12-01T19:29:04.709Z,27.85
2022-12-01T19:33:17.068Z,28.08
2022-12-01T19:37:29.352Z,25.02
2022-12-01T19:41:41.839Z,29.10
2022-12-01T19:45:54.173Z,28.23
2022-12-01T19:50:07.098Z,27.52
2022-12-01T19:54:20.613Z,28.77
2022-12-01T19:58:34.231Z,20.17
2022-12-01T20:02:46.566Z,22.15
2022-12-01T20:06:59.148Z,24.70
2022-12-01T20:11:13.634Z,23.38
2022-12-01T20:15:25.939Z,25.80
2022-12-01T20:19:38.905Z,25.65
2022-12-01T20:23:55.584Z,30.48
2022-12-01T20:28:07.856Z,23.75
2022-12-01T20:32:23.515Z,26.42
2022-12-01T20:36:36.986Z,27.92
2022-12-01T20:40:59.268Z,28.42
2022-12-01T20:45:11.974Z,29.25
2022-12-01T20:49:24.756Z,34.00
2022-12-01T20:53:37.268Z,25.95
2022-12-01T20:57:49.618Z,27.58
2022-12-01T21:02:02.070Z,33.03
2022-12-01T21:06:16.086Z,31.48
2022-12-01T21:10:29.032Z,24.40
2022-12-01T21:15:02.423Z,31.20
2022-12-01T21:19:21.289Z,29.25
2022-12-01T21:23:43.555Z,28.92
2022-12-01T21:28:00.804Z,30.73
2022-12-01T21:32:44.192Z,28.63
2022-12-01T21:37:15.090Z,28.20
2022-12-01T21:41:31.802Z,36.30
2022-12-01T21:45:44.250Z,34.05
2022-12-01T21:49:58.786Z,35.85
2022-12-01T21:54:20.088Z,36.22
2022-12-01T21:58:37.117Z,29.70
2022-12-01T22:03:10.441Z,29.55
2022-12-01T22:07:22.831Z,31.48
2022-12-01T22:11:35.178Z,32.45
2022-12-01T22:15:47.503Z,30.15
2022-12-01T22:20:03.612Z,33.72
2022-12-01T22:24:40.107Z,29.08
2022-12-01T22:28:56.924Z,26.67
2022-12-01T22:33:20.821Z,29.90
2022-12-01T22:37:46.747Z,31.35
2022-12-01T22:42:02.088Z,27.50
2022-12-01T22:46:38.226Z,28.58
2022-12-01T22:50:52.123Z,29.55
2022-12-01T22:55:15.836Z,33.15
2022-12-01T22:59:34.944Z,27.98
2022-12-01T23:03:47.381Z,33.28
2022-12-01T23:08:13.819Z,26.95
2022-12-01T23:12:33.131Z,33.25
2022-12-01T23:16:45.560Z,28.05
2022-12-01T23:21:00.028Z,35.13
2022-12-01T23:25:15.564Z,40.30
2022-12-01T23:29:27.839Z,27.80
2022-12-01T23:33:40.128Z,24.73
2022-12-01T23:37:54.061Z,27.98
2022-12-01T23:42:06.897Z,29.23
2022-12-01T23:46:23.494Z,34.20
2022-12-01T23:50:35.826Z,35.45
2022-12-01T23:54:49.283Z,30.23
2022-12-01T23:59:13.008Z,31.87
